Morris, AL (35116)

7:04 AM CST on December 19, 2014 (GMT -0600)
Doss Ferry / NJMS | Change Station
CLOSE
Current Station
Personal Weather Station
Location: Kimberly, AL
Elevation: 453 ft
Nearby Weather Stations

Elev 453 ft 33.78 °N, 86.80 °W | Updated 14 seconds ago

Mostly Cloudy
Mostly Cloudy
28.9 °F
Feels Like 29 °F
N
0.0
Wind Variable Wind from SW
Gusts 0.0 mph

Today
High -- | Low -- °F
--% Chance of Precip.
Yesterday
High -- | Low -- °F
Precip. -- in
6:46 AM 4:41 PM
Waning Crescent, 8% visible
Pressure 30.22 in
Visibility 7.0 miles
Clouds Few 3500 ft
Overcast 25000 ft
Windchill 29 °F
Dew Point 28 °F
Humidity 98%
Rainfall 0.00 in
Snow Depth Not available.
UV 0 out of 12
Pollen 1.40 out of 12
Air Quality Not available.
Flu Activity Not available.
METAR KBHM 191253Z 00000KT 7SM FEW035 OVC250 01/00 A3021 RMK AO2 SLP234 T00110000

More Conditions Fewer Conditions

Pressure 30.22 in
Visibility 7.0 miles
Clouds Few 3500 ft
Overcast 25000 ft
Windchill 29 °F
Dew Point 28 °F
Humidity 98%
Rainfall 0.00 in
Snow Depth Not available.
UV 0 out of 12
Pollen 1.40 out of 12
Air Quality Not available.
Flu Activity Not available.
METAR KBHM 191253Z 00000KT 7SM FEW035 OVC250 01/00 A3021 RMK AO2 SLP234 T00110000

More Conditions Fewer Conditions

10-Day Weather Forecast

Almanac

Astronomy

Dec. 19, 2014 Rise Set
Actual Time
Civil Twilight
Nautical Twilight
Astronomical Twilight
Moon
Length of Visible Light
Length of Day
Tomorrow will be .
, % of the Moon is Illuminated

Today's Extremes

State Highs State Lows

Community

WunderPhotos

Upload Photos

1,778,983 photos uploaded!

WunderBlogs® & News

Nearby

Air Quality

  Air Quality AQ Index Pollutant
Not available.

Snow Depth

Station Depth Elevation

Earthquake Activity

City Distance Mag. Time & Date
Minimum magnitude displayed is 2.5.

Coastal Water Temperatures

Place Temperature

Nearby Weather Stations